createdAt,value
2019-02-10T00:00:59.318Z,15.50
2019-02-10T00:03:30.794Z,12.80
2019-02-10T00:06:02.323Z,13.23
2019-02-10T00:08:33.817Z,16.80
2019-02-10T00:11:06.102Z,12.77
2019-02-10T00:13:38.872Z,16.37
2019-02-10T00:16:12.870Z,16.00
2019-02-10T00:18:44.736Z,15.27
2019-02-10T00:21:16.218Z,14.13
2019-02-10T00:23:48.901Z,16.67
2019-02-10T00:26:20.280Z,19.23
2019-02-10T00:28:56.115Z,12.90
2019-02-10T00:31:28.053Z,19.53
2019-02-10T00:34:00.054Z,11.93
2019-02-10T00:36:33.543Z,10.53
2019-02-10T00:39:09.695Z,10.60
2019-02-10T00:41:41.545Z,12.50
2019-02-10T00:44:14.770Z,12.93
2019-02-10T00:46:46.433Z,13.90
2019-02-10T00:49:18.303Z,13.53
2019-02-10T00:51:49.969Z,14.40
2019-02-10T00:54:22.267Z,10.27
2019-02-10T00:56:55.791Z,10.73
2019-02-10T00:59:27.590Z,11.60
2019-02-10T01:01:59.622Z,13.33
2019-02-10T01:04:31.460Z,8.57
2019-02-10T01:07:03.581Z,8.73
2019-02-10T01:09:36.475Z,9.13
2019-02-10T01:12:07.945Z,8.83
2019-02-10T01:14:39.841Z,11.03
2019-02-10T01:17:11.208Z,12.37
2019-02-10T01:19:43.963Z,10.63
2019-02-10T01:22:16.645Z,10.17
2019-02-10T01:24:48.940Z,13.07
2019-02-10T01:27:20.554Z,8.63
2019-02-10T01:29:52.743Z,11.90
2019-02-10T01:32:24.237Z,11.40
2019-02-10T01:34:55.996Z,13.13
2019-02-10T01:37:27.985Z,10.97
2019-02-10T01:39:59.552Z,10.37
2019-02-10T01:42:30.854Z,5.87
2019-02-10T01:45:02.164Z,8.97
2019-02-10T01:47:33.772Z,10.93
2019-02-10T01:50:06.442Z,12.13
2019-02-10T01:52:40.766Z,11.37
2019-02-10T01:55:13.272Z,9.03
2019-02-10T01:57:44.766Z,9.30
2019-02-10T02:00:16.801Z,9.87
2019-02-10T02:02:50.050Z,12.63
2019-02-10T02:05:24.256Z,12.47
2019-02-10T02:07:56.568Z,8.37
2019-02-10T02:10:29.450Z,9.73
2019-02-10T02:13:00.850Z,11.30
2019-02-10T02:15:32.966Z,12.10
2019-02-10T02:18:05.822Z,10.23
2019-02-10T02:20:39.159Z,7.73
2019-02-10T02:23:10.752Z,7.00
2019-02-10T02:25:42.330Z,13.03
2019-02-10T02:28:14.393Z,11.57
2019-02-10T02:30:45.985Z,9.47
2019-02-10T02:33:17.519Z,8.83
2019-02-10T02:35:50.057Z,10.13
2019-02-10T02:38:22.075Z,13.33
2019-02-10T02:40:53.569Z,13.70
2019-02-10T02:43:25.935Z,8.00
2019-02-10T02:45:58.573Z,11.33
2019-02-10T02:48:30.194Z,9.90
2019-02-10T02:51:01.625Z,10.37
2019-02-10T02:53:33.642Z,11.67
2019-02-10T02:56:05.488Z,11.10
2019-02-10T02:58:36.995Z,11.47
2019-02-10T03:01:08.412Z,8.27
2019-02-10T03:03:40.191Z,7.37
2019-02-10T03:06:11.641Z,8.23
2019-02-10T03:08:43.509Z,8.63
2019-02-10T03:11:15.298Z,9.77
2019-02-10T03:13:47.269Z,9.23
2019-02-10T03:16:18.999Z,7.07
2019-02-10T03:18:53.323Z,10.53
2019-02-10T03:21:26.118Z,7.83
2019-02-10T03:23:58.992Z,7.90
2019-02-10T03:26:30.457Z,3.67
2019-02-10T03:29:02.093Z,5.33
2019-02-10T03:31:33.653Z,7.13
2019-02-10T03:34:04.997Z,5.77
2019-02-10T03:36:36.762Z,5.57
2019-02-10T03:39:09.112Z,6.23
2019-02-10T03:41:40.967Z,10.40
2019-02-10T03:44:12.601Z,4.97
2019-02-10T03:46:44.545Z,4.93
2019-02-10T03:49:19.172Z,5.30
2019-02-10T03:51:50.865Z,4.67
2019-02-10T03:54:22.479Z,4.20
2019-02-10T03:56:54.110Z,4.30
2019-02-10T03:59:25.632Z,5.97
2019-02-10T04:01:57.185Z,6.33
2019-02-10T04:04:30.306Z,3.77
2019-02-10T04:07:02.141Z,3.90
2019-02-10T04:09:34.051Z,3.30
2019-02-10T04:12:06.968Z,4.57
2019-02-10T04:14:41.944Z,3.13
2019-02-10T04:17:13.866Z,3.93
2019-02-10T04:19:49.917Z,3.30
2019-02-10T04:22:23.316Z,4.60
2019-02-10T04:24:55.534Z,3.27
2019-02-10T04:27:32.144Z,4.47
2019-02-10T04:30:05.912Z,4.70
2019-02-10T04:32:38.334Z,4.80
2019-02-10T04:35:09.993Z,5.20
2019-02-10T04:37:46.228Z,2.73
2019-02-10T04:40:14.648Z,5.67
2019-02-10T04:42:46.180Z,4.73
2019-02-10T04:45:17.993Z,4.37
2019-02-10T04:47:49.699Z,4.60
2019-02-10T04:50:21.128Z,4.10
2019-02-10T04:52:52.767Z,3.60
2019-02-10T04:55:26.023Z,3.60
2019-02-10T04:58:02.052Z,3.87
2019-02-10T05:00:34.746Z,3.57
2019-02-10T05:03:06.125Z,4.80
2019-02-10T05:05:37.662Z,3.20
2019-02-10T05:08:09.541Z,4.23
2019-02-10T05:10:43.924Z,3.97
2019-02-10T05:13:15.511Z,3.83
2019-02-10T05:15:46.900Z,4.00
2019-02-10T05:18:18.492Z,4.63
2019-02-10T05:20:51.121Z,3.90
2019-02-10T05:23:22.725Z,4.63
2019-02-10T05:25:55.868Z,3.10
2019-02-10T05:28:27.773Z,4.87
2019-02-10T05:30:59.482Z,3.77
2019-02-10T05:33:31.078Z,4.33
2019-02-10T05:36:05.336Z,4.30
2019-02-10T05:38:36.712Z,4.57
2019-02-10T05:41:08.763Z,4.10
2019-02-10T05:43:40.702Z,3.30
2019-02-10T05:46:13.087Z,2.93
2019-02-10T05:48:46.459Z,4.00
2019-02-10T05:51:18.564Z,3.00
2019-02-10T05:53:50.348Z,4.23
2019-02-10T05:56:22.054Z,3.83
2019-02-10T05:58:53.891Z,3.20
2019-02-10T06:02:46.298Z,3.17
2019-02-10T06:05:28.545Z,3.37
2019-02-10T06:08:00.102Z,3.43
2019-02-10T06:10:36.257Z,3.13
2019-02-10T06:13:10.717Z,3.77
2019-02-10T06:15:42.064Z,4.30
2019-02-10T06:18:15.443Z,3.07
2019-02-10T06:20:47.120Z,4.23
2019-02-10T06:23:19.439Z,3.13
2019-02-10T06:25:52.775Z,3.40
2019-02-10T06:28:24.365Z,3.50
2019-02-10T06:30:58.922Z,3.00
2019-02-10T06:33:30.346Z,2.27
2019-02-10T06:36:01.862Z,2.67
2019-02-10T06:38:33.790Z,2.47
2019-02-10T06:41:05.277Z,1.87
2019-02-10T06:43:41.872Z,2.43
2019-02-10T06:46:12.991Z,2.20
2019-02-10T06:48:46.547Z,2.63
2019-02-10T06:51:18.093Z,1.77
2019-02-10T06:53:50.339Z,1.53
2019-02-10T06:56:26.127Z,0.90
2019-02-10T06:58:59.870Z,1.00
2019-02-10T07:01:42.410Z,0.90
2019-02-10T07:04:25.158Z,0.60
2019-02-10T07:07:00.200Z,0.50
2019-02-10T07:09:32.384Z,1.47
2019-02-10T07:12:40.864Z,1.83
2019-02-10T07:15:48.775Z,2.53
2019-02-10T07:18:56.532Z,2.20
2019-02-10T07:21:31.892Z,1.93
2019-02-10T07:24:43.566Z,1.20
2019-02-10T07:27:24.738Z,0.93
2019-02-10T07:30:34.957Z,1.63
2019-02-10T07:33:10.979Z,4.20
2019-02-10T07:36:14.262Z,1.70
2019-02-10T07:39:22.474Z,1.80
2019-02-10T07:42:17.289Z,1.17
2019-02-10T07:45:17.637Z,2.50
2019-02-10T07:48:16.198Z,2.10
2019-02-10T07:51:27.274Z,1.50
2019-02-10T07:54:26.808Z,2.13
2019-02-10T07:57:35.857Z,2.73
2019-02-10T08:00:34.951Z,4.17
2019-02-10T08:03:39.449Z,3.57
2019-02-10T08:06:33.915Z,3.57
2019-02-10T08:09:32.521Z,2.60
2019-02-10T08:12:41.012Z,2.63
2019-02-10T08:15:59.672Z,3.53
2019-02-10T08:19:23.261Z,4.00
2019-02-10T08:22:21.166Z,2.90
2019-02-10T08:25:16.546Z,3.10
2019-02-10T08:28:40.499Z,3.40
2019-02-10T08:31:41.824Z,2.93
2019-02-10T08:34:41.636Z,2.63
2019-02-10T08:38:14.975Z,2.57
2019-02-10T08:41:14.867Z,2.20
2019-02-10T08:44:17.454Z,3.63
2019-02-10T08:46:58.712Z,2.47
2019-02-10T08:49:45.625Z,2.30
2019-02-10T08:52:34.135Z,1.90
2019-02-10T08:55:05.840Z,3.37
2019-02-10T08:57:37.351Z,2.87
2019-02-10T09:00:10.577Z,2.60
2019-02-10T09:02:43.213Z,2.57
2019-02-10T09:05:15.231Z,4.43
2019-02-10T09:07:48.951Z,2.30
2019-02-10T09:10:20.661Z,2.73
2019-02-10T09:12:52.341Z,4.13
2019-02-10T09:15:24.241Z,2.30
2019-02-10T09:17:56.756Z,6.83
2019-02-10T09:20:29.020Z,2.37
2019-02-10T09:23:00.482Z,2.90
2019-02-10T09:25:31.923Z,3.03
2019-02-10T09:28:03.650Z,3.63
2019-02-10T09:30:37.877Z,2.67
2019-02-10T09:33:10.135Z,5.53
2019-02-10T09:35:42.412Z,5.13
2019-02-10T09:38:14.117Z,5.50
2019-02-10T09:40:45.702Z,5.53
2019-02-10T09:43:17.688Z,7.17
2019-02-10T09:45:49.885Z,4.90
2019-02-10T09:48:21.894Z,6.47
2019-02-10T09:50:53.431Z,4.60
2019-02-10T09:53:25.662Z,6.50
2019-02-10T09:55:58.398Z,6.70
2019-02-10T09:58:33.090Z,6.47
2019-02-10T10:01:04.719Z,7.37
2019-02-10T10:03:36.363Z,7.07
2019-02-10T10:06:08.264Z,6.80
2019-02-10T10:08:39.957Z,7.47
2019-02-10T10:11:11.498Z,5.47
2019-02-10T10:13:43.048Z,6.30
2019-02-10T10:16:14.602Z,6.83
2019-02-10T10:18:46.331Z,7.10
2019-02-10T10:21:17.934Z,6.40
2019-02-10T10:23:52.238Z,8.73
2019-02-10T10:26:23.771Z,6.57
2019-02-10T10:28:55.747Z,5.97
2019-02-10T10:31:27.665Z,5.30
2019-02-10T10:33:59.415Z,7.60
2019-02-10T10:36:31.889Z,5.43
2019-02-10T10:39:05.243Z,4.77
2019-02-10T10:41:37.763Z,8.33
2019-02-10T10:44:09.189Z,6.37
2019-02-10T10:46:41.951Z,4.87
2019-02-10T10:49:13.994Z,6.53
2019-02-10T10:51:45.957Z,5.53
2019-02-10T10:54:20.201Z,6.23
2019-02-10T10:56:51.830Z,3.17
2019-02-10T10:59:24.803Z,3.80
2019-02-10T11:01:56.666Z,4.80
2019-02-10T11:04:28.155Z,3.77
2019-02-10T11:06:59.955Z,4.83
2019-02-10T11:09:35.529Z,5.33
2019-02-10T11:12:04.590Z,8.03
2019-02-10T11:14:38.180Z,8.20
2019-02-10T11:17:10.551Z,7.50
2019-02-10T11:19:42.558Z,5.53
2019-02-10T11:22:15.555Z,15.00
2019-02-10T11:24:47.043Z,5.30
2019-02-10T11:27:18.698Z,10.10
2019-02-10T11:29:51.310Z,5.60
2019-02-10T11:32:24.642Z,4.80
2019-02-10T11:34:56.276Z,4.40
2019-02-10T11:37:28.158Z,5.10
2019-02-10T11:39:59.848Z,6.97
2019-02-10T11:42:31.911Z,4.93
2019-02-10T11:45:03.732Z,3.80
2019-02-10T11:47:35.166Z,4.77
2019-02-10T11:50:07.712Z,4.93
2019-02-10T11:52:39.358Z,3.70
2019-02-10T11:55:13.738Z,3.40
2019-02-10T11:57:45.858Z,2.33
2019-02-10T12:00:20.199Z,2.83
2019-02-10T12:02:53.897Z,2.17
2019-02-10T12:05:25.723Z,4.47
2019-02-10T12:07:59.833Z,3.90
2019-02-10T12:10:31.492Z,2.10
2019-02-10T12:13:06.502Z,3.27
2019-02-10T12:15:41.278Z,3.33
2019-02-10T12:18:14.584Z,2.83
2019-02-10T12:20:46.436Z,4.63
2019-02-10T12:23:18.159Z,3.53
2019-02-10T12:25:52.712Z,4.43
2019-02-10T12:28:27.900Z,3.50
2019-02-10T12:30:59.996Z,3.40
2019-02-10T12:33:34.803Z,3.53
2019-02-10T12:36:07.892Z,3.67
2019-02-10T12:38:41.434Z,2.73
2019-02-10T12:41:17.494Z,1.80
2019-02-10T12:43:49.599Z,5.87
2019-02-10T12:46:23.348Z,1.57
2019-02-10T12:48:54.989Z,1.73
2019-02-10T12:51:26.846Z,2.43
2019-02-10T12:53:58.808Z,4.77
2019-02-10T12:56:32.578Z,4.13
2019-02-10T12:59:04.083Z,2.70
2019-02-10T13:01:35.895Z,4.70
2019-02-10T13:04:07.427Z,4.77
2019-02-10T13:06:41.475Z,2.77
2019-02-10T13:09:14.395Z,4.33
2019-02-10T13:11:46.147Z,3.90
2019-02-10T13:14:17.617Z,1.93
2019-02-10T13:16:53.055Z,3.73
2019-02-10T13:19:26.931Z,2.77
2019-02-10T13:22:01.398Z,2.80
2019-02-10T13:24:34.515Z,1.87
2019-02-10T13:27:07.459Z,3.77
2019-02-10T13:29:39.200Z,3.50
2019-02-10T13:32:11.395Z,1.37
2019-02-10T13:34:42.891Z,3.53
2019-02-10T13:37:14.395Z,2.77
2019-02-10T13:39:48.811Z,2.63
2019-02-10T13:42:23.883Z,2.23
2019-02-10T13:44:56.667Z,3.90
2019-02-10T13:47:28.735Z,2.43
2019-02-10T13:50:09.580Z,2.53
2019-02-10T13:52:41.180Z,3.77
2019-02-10T13:55:17.054Z,2.80
2019-02-10T13:57:49.250Z,1.93
2019-02-10T14:00:23.024Z,2.97
2019-02-10T14:02:54.700Z,1.17
2019-02-10T14:05:27.950Z,2.60
2019-02-10T14:07:59.596Z,2.30
2019-02-10T14:10:34.198Z,1.93
2019-02-10T14:13:07.264Z,4.60
2019-02-10T14:15:40.049Z,3.40
2019-02-10T14:18:13.415Z,4.23
2019-02-10T14:20:45.428Z,3.13
2019-02-10T14:23:18.160Z,3.33
2019-02-10T14:25:51.457Z,3.37
2019-02-10T14:28:24.308Z,3.47
2019-02-10T14:30:56.202Z,2.33
2019-02-10T14:33:38.745Z,5.30
2019-02-10T14:36:06.292Z,3.50
2019-02-10T14:38:41.680Z,3.87
2019-02-10T14:41:14.548Z,2.77
2019-02-10T14:43:46.730Z,3.07
2019-02-10T14:46:19.105Z,2.17
2019-02-10T14:48:50.960Z,2.70
2019-02-10T14:51:24.454Z,3.90
2019-02-10T14:53:57.488Z,5.97
2019-02-10T14:56:29.416Z,3.73
2019-02-10T14:59:01.545Z,1.73
2019-02-10T15:01:33.219Z,3.80
2019-02-10T15:04:04.907Z,5.73
2019-02-10T15:06:36.447Z,4.27
2019-02-10T15:09:10.514Z,5.10
2019-02-10T15:11:42.238Z,3.93
2019-02-10T15:14:14.013Z,3.07
2019-02-10T15:16:45.719Z,4.23
2019-02-10T15:19:17.167Z,5.57
2019-02-10T15:21:48.894Z,4.00
2019-02-10T15:24:20.515Z,3.97
2019-02-10T15:26:52.318Z,4.47
2019-02-10T15:29:27.588Z,3.53
2019-02-10T15:32:00.404Z,2.10
2019-02-10T15:34:32.435Z,3.43
2019-02-10T15:37:05.705Z,2.20
2019-02-10T15:39:38.475Z,3.13
2019-02-10T15:42:11.097Z,2.13
2019-02-10T15:44:42.987Z,3.97
2019-02-10T15:47:14.948Z,3.43
2019-02-10T15:49:47.038Z,4.30
2019-02-10T15:52:18.491Z,5.30
2019-02-10T15:54:50.419Z,8.87
2019-02-10T15:57:22.209Z,4.90
2019-02-10T15:59:53.671Z,4.43
2019-02-10T16:02:29.088Z,4.53
2019-02-10T16:05:29.105Z,5.40
2019-02-10T16:07:40.704Z,3.37
2019-02-10T16:10:16.176Z,6.90
2019-02-10T16:12:47.866Z,6.77
2019-02-10T16:15:23.190Z,5.83
2019-02-10T16:17:54.852Z,3.37
2019-02-10T16:20:26.666Z,8.50
2019-02-10T16:22:58.544Z,6.57
2019-02-10T16:25:31.232Z,3.87
2019-02-10T16:28:02.953Z,5.50
2019-02-10T16:30:34.933Z,8.13
2019-02-10T16:33:06.408Z,3.80
2019-02-10T16:35:39.498Z,4.20
2019-02-10T16:38:11.296Z,4.37
2019-02-10T16:40:43.012Z,3.77
2019-02-10T16:43:18.035Z,3.43
2019-02-10T16:45:49.428Z,4.90
2019-02-10T16:48:21.112Z,4.83
2019-02-10T16:50:53.161Z,6.00
2019-02-10T16:53:25.270Z,4.60
2019-02-10T16:55:57.068Z,5.20
2019-02-10T16:58:28.906Z,7.53
2019-02-10T17:01:00.421Z,5.47
2019-02-10T17:03:32.412Z,8.60
2019-02-10T17:06:04.060Z,6.30
2019-02-10T17:08:35.579Z,6.47
2019-02-10T17:11:14.230Z,4.60
2019-02-10T17:13:40.513Z,3.80
2019-02-10T17:16:14.458Z,8.20
2019-02-10T17:18:46.717Z,4.60
2019-02-10T17:21:21.357Z,6.90
2019-02-10T17:23:52.971Z,6.97
2019-02-10T17:26:24.957Z,6.67
2019-02-10T17:28:56.729Z,7.73
2019-02-10T17:31:32.797Z,6.97
2019-02-10T17:34:04.153Z,5.57
2019-02-10T17:36:39.429Z,6.73
2019-02-10T17:39:18.527Z,4.63
2019-02-10T17:41:50.541Z,6.03
2019-02-10T17:44:22.512Z,3.83
2019-02-10T17:46:55.497Z,6.73
2019-02-10T17:49:27.193Z,4.30
2019-02-10T17:52:01.118Z,7.23
2019-02-10T17:54:32.955Z,8.60
2019-02-10T17:57:07.662Z,6.83
2019-02-10T17:59:40.095Z,5.50
2019-02-10T18:02:13.587Z,5.60
2019-02-10T18:04:45.276Z,6.73
2019-02-10T18:07:17.049Z,6.07
2019-02-10T18:09:48.954Z,8.77
2019-02-10T18:12:21.409Z,6.20
2019-02-10T18:15:20.706Z,6.40
2019-02-10T18:17:57.753Z,5.13
2019-02-10T18:20:44.611Z,8.83
2019-02-10T18:23:30.625Z,6.43
2019-02-10T18:26:27.439Z,7.80
2019-02-10T18:29:23.736Z,8.23
2019-02-10T18:32:18.185Z,8.27
2019-02-10T18:35:12.286Z,10.10
2019-02-10T18:37:57.098Z,9.23
2019-02-10T18:40:35.466Z,9.47
2019-02-10T18:43:30.094Z,10.73
2019-02-10T18:46:14.723Z,9.30
2019-02-10T18:49:03.774Z,9.07
2019-02-10T18:52:00.368Z,9.67
2019-02-10T18:54:56.942Z,12.13
2019-02-10T18:57:47.042Z,11.43
2019-02-10T19:00:38.104Z,8.27
2019-02-10T19:03:28.556Z,10.63
2019-02-10T19:06:21.776Z,7.00
2019-02-10T19:09:13.978Z,9.23
2019-02-10T19:11:54.622Z,9.77
2019-02-10T19:14:44.407Z,5.87
2019-02-10T19:17:35.407Z,11.40
2019-02-10T19:20:26.535Z,6.00
2019-02-10T19:23:09.021Z,9.73
2019-02-10T19:25:54.518Z,6.37
2019-02-10T19:28:35.878Z,7.67
2019-02-10T19:31:26.315Z,8.37
2019-02-10T19:34:18.218Z,6.53
2019-02-10T19:37:29.809Z,8.57
2019-02-10T19:40:24.873Z,6.17
2019-02-10T19:43:19.245Z,5.53
2019-02-10T19:46:32.118Z,5.50
2019-02-10T19:49:31.843Z,8.80
2019-02-10T19:52:21.579Z,7.10
2019-02-10T19:55:20.851Z,6.17
2019-02-10T19:58:14.430Z,8.27
2019-02-10T20:01:17.041Z,6.73
2019-02-10T20:04:11.361Z,6.77
2019-02-10T20:07:09.167Z,6.70
2019-02-10T20:10:02.261Z,5.17
2019-02-10T20:13:05.717Z,6.87
2019-02-10T20:16:16.146Z,7.80
2019-02-10T20:19:16.521Z,10.87
2019-02-10T20:22:15.978Z,5.33
2019-02-10T20:25:18.632Z,5.50
2019-02-10T20:29:07.102Z,3.83
2019-02-10T20:32:19.186Z,10.40
2019-02-10T20:35:07.608Z,7.20
2019-02-10T20:38:11.174Z,6.87
2019-02-10T20:41:02.323Z,7.73
2019-02-10T20:43:38.252Z,4.67
2019-02-10T20:46:31.700Z,5.30
2019-02-10T20:49:31.435Z,6.30
2019-02-10T20:52:30.667Z,6.57
2019-02-10T20:55:32.317Z,5.80
2019-02-10T20:58:08.906Z,5.80
2019-02-10T21:01:14.798Z,9.87
2019-02-10T21:03:54.936Z,10.43
2019-02-10T21:06:45.329Z,7.87
2019-02-10T21:09:54.287Z,4.03
2019-02-10T21:12:39.552Z,6.10
2019-02-10T21:15:26.859Z,6.90
2019-02-10T21:18:23.681Z,5.93
2019-02-10T21:21:13.660Z,7.30
2019-02-10T21:24:17.603Z,7.63
2019-02-10T21:27:21.040Z,10.43
2019-02-10T21:30:03.805Z,9.03
2019-02-10T21:32:54.685Z,6.90
2019-02-10T21:35:34.118Z,11.57
2019-02-10T21:38:24.410Z,4.73
2019-02-10T21:41:20.922Z,7.13
2019-02-10T21:44:12.575Z,9.20
2019-02-10T21:47:01.458Z,7.43
2019-02-10T21:49:33.761Z,8.93
2019-02-10T21:52:05.360Z,9.67
2019-02-10T21:54:36.686Z,11.67
2019-02-10T21:57:09.503Z,6.23
2019-02-10T21:59:41.050Z,8.07
2019-02-10T22:02:12.497Z,5.50
2019-02-10T22:04:44.059Z,8.80
2019-02-10T22:07:15.523Z,9.47
2019-02-10T22:09:47.093Z,9.07
2019-02-10T22:12:18.803Z,9.20
2019-02-10T22:14:50.846Z,6.13
2019-02-10T22:17:24.086Z,10.73
2019-02-10T22:19:58.758Z,4.47
2019-02-10T22:22:32.139Z,7.03
2019-02-10T22:25:05.981Z,6.53
2019-02-10T22:27:39.091Z,8.93
2019-02-10T22:30:14.749Z,9.27
2019-02-10T22:32:48.239Z,7.07
2019-02-10T22:35:20.446Z,7.17
2019-02-10T22:37:53.335Z,5.93
2019-02-10T22:40:26.154Z,6.20
2019-02-10T22:42:57.652Z,8.30
2019-02-10T22:45:31.219Z,4.70
2019-02-10T22:48:03.679Z,6.60
2019-02-10T22:50:35.875Z,5.73
2019-02-10T22:53:07.417Z,8.67
2019-02-10T22:55:40.597Z,8.70
2019-02-10T22:58:12.440Z,6.77
2019-02-10T23:00:53.274Z,9.03
2019-02-10T23:03:25.200Z,6.27
2019-02-10T23:05:57.067Z,7.67
2019-02-10T23:08:28.865Z,7.13
2019-02-10T23:11:01.735Z,9.93
2019-02-10T23:13:33.577Z,5.93
2019-02-10T23:16:05.372Z,4.67
2019-02-10T23:18:37.005Z,8.93
2019-02-10T23:21:08.332Z,6.53
2019-02-10T23:23:39.904Z,6.73
2019-02-10T23:26:11.880Z,3.70
2019-02-10T23:28:44.564Z,5.87
2019-02-10T23:31:16.316Z,6.70
2019-02-10T23:33:47.832Z,6.77
2019-02-10T23:36:20.932Z,7.07
2019-02-10T23:38:52.400Z,7.13
2019-02-10T23:41:25.522Z,6.80
2019-02-10T23:43:58.602Z,5.63
2019-02-10T23:46:30.122Z,8.73
2019-02-10T23:49:04.003Z,8.20
2019-02-10T23:51:35.351Z,9.97
2019-02-10T23:54:06.999Z,6.70
2019-02-10T23:56:47.097Z,6.50
2019-02-10T23:59:14.492Z,5.60
